SJOP weather

Minas da Conceição Heliport
Itabira, Minas Gerais, Brazil

Public forecast

Using degrees Celsius for public forecast. Weather courtesy of forecast.io.

Closest aviation weather report (METAR) to Minas da Conceição Heliport

Report is more than 6 hours old.

Closest report is Lagoa Santa Airport, 36.4 nm (67.4 km) W. Retrieved 2020/08/08 02:00 UTC (7 hours ago):

SBLS 080200Z 14005KT CAVOK 16/09 Q1027

Closest aviation forecast (TAF) to Minas da Conceição Heliport

Closest forecast is Tancredo Neves International Airport, 40.7 nm (75.3 km) W. Retrieved 2020/08/08 06:00 UTC (3 hours ago):

TAF SBCF 080300Z 0806/0906 08005KT CAVOK TN11/0806Z TX24/0817Z RMK PEA